createdAt,value
2023-04-29T00:00:02.598Z,20.92
2023-04-29T00:01:02.685Z,20.94
2023-04-29T00:02:02.757Z,20.42
2023-04-29T00:03:02.929Z,20.76
2023-04-29T00:04:03.184Z,20.53
2023-04-29T00:05:03.293Z,20.22
2023-04-29T00:06:03.192Z,20.07
2023-04-29T00:07:03.167Z,20.46
2023-04-29T00:08:03.234Z,20.34
2023-04-29T00:09:03.334Z,20.21
2023-04-29T00:10:03.408Z,19.96
2023-04-29T00:11:03.496Z,20.46
2023-04-29T00:12:03.565Z,19.80
2023-04-29T00:13:03.625Z,20.46
2023-04-29T00:14:03.664Z,19.87
2023-04-29T00:15:03.748Z,20.09
2023-04-29T00:16:03.845Z,19.76
2023-04-29T00:17:03.913Z,20.30
2023-04-29T00:18:03.996Z,19.77
2023-04-29T00:19:04.033Z,19.43
2023-04-29T00:20:04.359Z,19.75
2023-04-29T00:21:04.179Z,19.35
2023-04-29T00:22:04.239Z,19.60
2023-04-29T00:23:04.311Z,19.77
2023-04-29T00:24:04.359Z,19.22
2023-04-29T00:25:04.453Z,19.04
2023-04-29T00:26:04.529Z,19.09
2023-04-29T00:27:04.598Z,19.40
2023-04-29T00:28:04.684Z,19.14
2023-04-29T00:29:04.752Z,19.29
2023-04-29T00:30:04.842Z,19.14
2023-04-29T00:31:04.985Z,18.88
2023-04-29T00:32:04.983Z,19.31
2023-04-29T00:33:05.122Z,18.77
2023-04-29T00:34:05.123Z,19.03
2023-04-29T00:35:05.197Z,18.94
2023-04-29T00:36:05.279Z,18.54
2023-04-29T00:37:05.332Z,18.71
2023-04-29T00:38:05.410Z,18.44
2023-04-29T00:39:05.505Z,18.54
2023-04-29T00:40:05.575Z,18.46
2023-04-29T00:41:05.643Z,18.41
2023-04-29T00:42:05.719Z,18.19
2023-04-29T00:43:05.754Z,18.48
2023-04-29T00:44:05.834Z,18.30
2023-04-29T00:45:08.134Z,18.21
2023-04-29T00:46:06.040Z,18.22
2023-04-29T00:47:06.071Z,17.97
2023-04-29T00:48:06.185Z,18.09
2023-04-29T00:49:06.231Z,17.96
2023-04-29T00:50:06.298Z,18.47
2023-04-29T00:51:06.381Z,18.13
2023-04-29T00:52:06.440Z,18.29
2023-04-29T00:53:06.514Z,17.64
2023-04-29T00:54:06.607Z,17.72
2023-04-29T00:55:06.653Z,17.79
2023-04-29T00:56:06.728Z,17.83
2023-04-29T00:57:06.797Z,17.61
2023-04-29T00:58:06.859Z,17.56
2023-04-29T00:59:06.938Z,17.32
2023-04-29T01:00:07.034Z,17.19
2023-04-29T01:01:07.141Z,17.43
2023-04-29T01:02:07.192Z,17.22
2023-04-29T01:03:07.445Z,17.20
2023-04-29T01:04:07.494Z,17.43
2023-04-29T01:05:07.425Z,17.09
2023-04-29T01:06:07.430Z,17.11
2023-04-29T01:07:07.452Z,17.13
2023-04-29T01:08:07.500Z,17.15
2023-04-29T01:09:07.521Z,17.20
2023-04-29T01:10:07.532Z,17.85
2023-04-29T01:11:07.572Z,17.25
2023-04-29T01:12:07.568Z,17.01
2023-04-29T01:13:07.593Z,16.90
2023-04-29T01:14:07.607Z,16.98
2023-04-29T01:15:07.660Z,17.27
2023-04-29T01:16:07.735Z,16.99
2023-04-29T01:17:07.809Z,17.04
2023-04-29T01:18:07.969Z,16.69
2023-04-29T01:19:07.970Z,16.61
2023-04-29T01:20:08.068Z,16.53
2023-04-29T01:21:08.137Z,16.57
2023-04-29T01:22:08.208Z,16.45
2023-04-29T01:23:08.238Z,16.46
2023-04-29T01:24:08.246Z,16.49
2023-04-29T01:25:08.273Z,16.54
2023-04-29T01:26:08.335Z,16.51
2023-04-29T01:27:08.308Z,16.83
2023-04-29T01:28:08.343Z,17.00
2023-04-29T01:29:08.384Z,16.42
2023-04-29T01:30:08.378Z,16.60
2023-04-29T01:31:08.431Z,16.78
2023-04-29T01:32:08.453Z,16.28
2023-04-29T01:33:08.627Z,16.58
2023-04-29T01:34:08.649Z,16.25
2023-04-29T01:35:08.697Z,16.26
2023-04-29T01:36:08.768Z,16.03
2023-04-29T01:37:08.839Z,16.00
2023-04-29T01:38:08.912Z,16.04
2023-04-29T01:39:08.983Z,15.91
2023-04-29T01:40:09.074Z,15.80
2023-04-29T01:41:09.153Z,15.95
2023-04-29T01:42:09.218Z,15.85
2023-04-29T01:43:09.288Z,15.83
2023-04-29T01:44:09.362Z,15.70
2023-04-29T01:45:09.443Z,15.94
2023-04-29T01:46:09.548Z,15.70
2023-04-29T01:47:09.603Z,15.68
2023-04-29T01:48:09.608Z,15.70
2023-04-29T01:49:09.619Z,15.73
2023-04-29T01:50:09.642Z,15.71
2023-04-29T01:51:09.654Z,15.71
2023-04-29T01:52:09.679Z,15.78
2023-04-29T01:53:09.691Z,15.80
2023-04-29T01:54:09.734Z,15.71
2023-04-29T01:55:09.722Z,15.59
2023-04-29T01:56:09.730Z,15.29
2023-04-29T01:57:09.761Z,15.44
2023-04-29T01:58:09.767Z,15.59
2023-04-29T01:59:09.831Z,15.69
2023-04-29T02:00:09.945Z,15.18
2023-04-29T02:01:10.041Z,15.29
2023-04-29T02:02:10.070Z,15.17
2023-04-29T02:03:10.282Z,15.15
2023-04-29T02:04:10.282Z,14.98
2023-04-29T02:05:10.287Z,15.02
2023-04-29T02:06:10.366Z,15.00
2023-04-29T02:07:10.426Z,14.70
2023-04-29T02:08:10.491Z,15.03
2023-04-29T02:09:10.569Z,14.78
2023-04-29T02:10:10.647Z,14.88
2023-04-29T02:11:10.709Z,14.67
2023-04-29T02:12:10.784Z,14.97
2023-04-29T02:13:10.851Z,14.77
2023-04-29T02:14:10.918Z,14.42
2023-04-29T02:15:10.990Z,14.63
2023-04-29T02:16:11.120Z,14.60
2023-04-29T02:17:11.168Z,14.35
2023-04-29T02:18:11.232Z,14.70
2023-04-29T02:19:11.605Z,14.52
2023-04-29T02:20:11.383Z,14.25
2023-04-29T02:21:11.478Z,14.35
2023-04-29T02:22:11.552Z,14.16
2023-04-29T02:23:11.614Z,14.27
2023-04-29T02:24:11.685Z,13.92
2023-04-29T02:25:11.771Z,13.92
2023-04-29T02:26:11.861Z,14.09
2023-04-29T02:27:11.926Z,14.03
2023-04-29T02:28:11.994Z,14.07
2023-04-29T02:29:12.063Z,14.04
2023-04-29T02:30:12.159Z,13.94
2023-04-29T02:31:12.211Z,13.75
2023-04-29T02:32:12.328Z,14.03
2023-04-29T02:33:12.395Z,13.86
2023-04-29T02:34:12.417Z,13.73
2023-04-29T02:35:12.490Z,13.97
2023-04-29T02:36:12.566Z,13.58
2023-04-29T02:37:12.659Z,13.95
2023-04-29T02:38:12.725Z,13.73
2023-04-29T02:39:12.740Z,13.74
2023-04-29T02:40:12.768Z,13.73
2023-04-29T02:41:12.775Z,13.62
2023-04-29T02:42:12.804Z,13.75
2023-04-29T02:43:12.814Z,13.65
2023-04-29T02:44:12.833Z,13.67
2023-04-29T02:45:12.870Z,13.36
2023-04-29T02:46:12.904Z,13.51
2023-04-29T02:47:12.908Z,13.66
2023-04-29T02:48:13.018Z,13.61
2023-04-29T02:49:13.031Z,13.47
2023-04-29T02:50:13.126Z,13.38
2023-04-29T02:51:13.199Z,13.33
2023-04-29T02:52:13.275Z,13.12
2023-04-29T02:53:13.357Z,13.25
2023-04-29T02:54:13.427Z,12.84
2023-04-29T02:55:13.514Z,12.88
2023-04-29T02:56:13.582Z,13.10
2023-04-29T02:57:13.655Z,12.97
2023-04-29T02:58:13.757Z,12.96
2023-04-29T02:59:13.852Z,12.96
2023-04-29T03:00:13.985Z,12.88
2023-04-29T03:01:14.040Z,12.40
2023-04-29T03:02:14.079Z,11.79
2023-04-29T03:03:14.353Z,11.63
2023-04-29T03:04:14.325Z,11.59
2023-04-29T03:05:14.289Z,10.97
2023-04-29T03:06:14.359Z,10.61
2023-04-29T03:07:14.428Z,10.36
2023-04-29T03:08:14.530Z,9.73
2023-04-29T03:09:14.577Z,9.47
2023-04-29T03:10:14.634Z,9.26
2023-04-29T03:11:14.735Z,8.77
2023-04-29T03:12:14.809Z,8.52
2023-04-29T03:13:14.844Z,8.30
2023-04-29T03:14:14.911Z,7.87
2023-04-29T03:15:14.959Z,7.80
2023-04-29T03:16:15.033Z,7.52
2023-04-29T03:17:15.060Z,7.18
2023-04-29T03:18:15.099Z,7.02
2023-04-29T03:19:15.160Z,6.89
2023-04-29T03:20:15.196Z,6.82
2023-04-29T03:21:15.257Z,6.70
2023-04-29T03:22:15.266Z,6.47
2023-04-29T03:23:15.285Z,6.25
2023-04-29T03:24:15.343Z,6.02
2023-04-29T03:25:15.332Z,6.03
2023-04-29T03:26:15.404Z,5.96
2023-04-29T03:27:15.371Z,5.95
2023-04-29T03:28:15.409Z,5.89
2023-04-29T03:29:15.423Z,5.85
2023-04-29T03:30:15.483Z,5.74
2023-04-29T03:31:15.468Z,5.36
2023-04-29T03:32:15.489Z,5.36
2023-04-29T03:33:15.510Z,5.27
2023-04-29T03:34:15.531Z,5.16
2023-04-29T03:35:15.962Z,5.15
2023-04-29T03:36:15.573Z,5.09
2023-04-29T03:37:15.602Z,4.93
2023-04-29T03:38:15.618Z,4.93
2023-04-29T03:39:15.628Z,4.75
2023-04-29T03:40:15.662Z,4.66
2023-04-29T03:41:15.679Z,4.64
2023-04-29T03:42:15.691Z,4.54
2023-04-29T03:43:15.705Z,4.43
2023-04-29T03:44:15.731Z,4.35
2023-04-29T03:45:15.739Z,4.30
2023-04-29T03:46:15.798Z,4.13
2023-04-29T03:47:15.789Z,4.06
2023-04-29T03:48:15.796Z,4.12
2023-04-29T03:49:15.810Z,4.21
2023-04-29T03:50:15.834Z,4.06
2023-04-29T03:51:15.849Z,4.02
2023-04-29T03:52:15.876Z,3.96
2023-04-29T03:53:15.893Z,3.86
2023-04-29T03:54:15.951Z,3.88
2023-04-29T03:55:16.017Z,3.97
2023-04-29T03:56:17.308Z,3.93
2023-04-29T03:57:16.120Z,3.86
2023-04-29T03:58:16.153Z,3.96
2023-04-29T03:59:16.212Z,4.00
2023-04-29T04:00:16.265Z,3.84
2023-04-29T04:01:16.329Z,3.99
2023-04-29T04:02:16.421Z,3.97
2023-04-29T04:03:16.560Z,3.83
2023-04-29T04:04:16.658Z,3.88
2023-04-29T04:05:16.609Z,3.92
2023-04-29T04:06:16.635Z,3.90
2023-04-29T04:07:16.697Z,3.92
2023-04-29T04:08:16.726Z,3.86
2023-04-29T04:09:16.796Z,3.85
2023-04-29T04:10:16.858Z,3.82
2023-04-29T04:11:16.920Z,3.80
2023-04-29T04:12:16.989Z,3.78
2023-04-29T04:13:16.981Z,3.79
2023-04-29T04:14:17.018Z,3.79
2023-04-29T04:15:17.043Z,3.83
2023-04-29T04:16:17.078Z,3.76
2023-04-29T04:17:17.097Z,3.79
2023-04-29T04:18:17.269Z,3.79
2023-04-29T04:19:17.117Z,3.70
2023-04-29T04:20:17.138Z,3.67
2023-04-29T04:21:17.149Z,3.63
2023-04-29T04:22:17.188Z,3.70
2023-04-29T04:23:17.188Z,3.62
2023-04-29T04:24:17.229Z,3.50
2023-04-29T04:25:17.298Z,3.64
2023-04-29T04:26:17.372Z,3.54
2023-04-29T04:27:17.443Z,3.58
2023-04-29T04:28:17.490Z,3.46
2023-04-29T04:29:17.560Z,3.54
2023-04-29T04:30:17.632Z,3.66
2023-04-29T04:31:17.727Z,3.52
2023-04-29T04:32:17.772Z,3.65
2023-04-29T04:33:17.846Z,3.58
2023-04-29T04:34:17.933Z,3.61
2023-04-29T04:35:18.004Z,3.73
2023-04-29T04:36:18.184Z,3.72
2023-04-29T04:37:18.162Z,3.80
2023-04-29T04:38:18.233Z,3.70
2023-04-29T04:39:18.302Z,3.66
2023-04-29T04:40:18.378Z,3.69
2023-04-29T04:41:18.441Z,3.64
2023-04-29T04:42:18.536Z,3.73
2023-04-29T04:43:18.591Z,3.69
2023-04-29T04:44:18.680Z,3.59
2023-04-29T04:45:18.735Z,3.65
2023-04-29T04:46:18.862Z,3.62
2023-04-29T04:47:18.907Z,3.69
2023-04-29T04:48:18.995Z,3.63
2023-04-29T04:49:19.076Z,3.80
2023-04-29T04:50:19.135Z,3.74
2023-04-29T04:51:19.226Z,3.74
2023-04-29T04:52:19.318Z,3.78
2023-04-29T04:53:19.395Z,3.77
2023-04-29T04:54:19.462Z,3.72
2023-04-29T04:55:19.542Z,3.82
2023-04-29T04:56:19.624Z,3.78
2023-04-29T04:57:19.711Z,3.70
2023-04-29T04:58:19.789Z,3.82
2023-04-29T04:59:19.880Z,3.83
2023-04-29T05:00:19.951Z,3.81
2023-04-29T05:01:20.094Z,3.86
2023-04-29T05:02:20.171Z,3.87
2023-04-29T05:03:20.289Z,3.87
2023-04-29T05:04:20.414Z,3.87
2023-04-29T05:05:20.197Z,3.87
2023-04-29T05:06:20.219Z,3.81
2023-04-29T05:07:20.244Z,3.80
2023-04-29T05:08:20.287Z,3.74
2023-04-29T05:09:20.303Z,3.73
2023-04-29T05:10:20.312Z,3.86
2023-04-29T05:11:20.348Z,3.79
2023-04-29T05:12:20.434Z,3.87
2023-04-29T05:13:20.521Z,3.95
2023-04-29T05:14:20.606Z,3.82
2023-04-29T05:15:20.711Z,3.90
2023-04-29T05:16:20.820Z,3.78
2023-04-29T05:17:20.922Z,3.81
2023-04-29T05:18:20.958Z,3.87
2023-04-29T05:19:21.025Z,3.89
2023-04-29T05:20:21.122Z,3.86
2023-04-29T05:21:21.199Z,3.84
2023-04-29T05:22:21.303Z,3.77
2023-04-29T05:23:21.376Z,3.82
2023-04-29T05:24:21.464Z,3.88
2023-04-29T05:25:21.548Z,3.85
2023-04-29T05:26:21.635Z,3.92
2023-04-29T05:27:21.750Z,3.87
2023-04-29T05:28:21.809Z,3.94
2023-04-29T05:29:21.902Z,3.91
2023-04-29T05:30:21.983Z,3.86
2023-04-29T05:31:22.130Z,3.89
2023-04-29T05:32:22.185Z,3.88
2023-04-29T05:33:22.274Z,3.88
2023-04-29T05:34:22.330Z,3.84
2023-04-29T05:35:22.420Z,3.91
2023-04-29T05:36:22.547Z,3.92
2023-04-29T05:37:22.622Z,3.93
2023-04-29T05:38:22.700Z,3.91
2023-04-29T05:39:22.781Z,3.91
2023-04-29T05:40:22.869Z,3.91
2023-04-29T05:41:22.954Z,3.96
2023-04-29T05:42:23.051Z,3.90
2023-04-29T05:43:23.149Z,3.86
2023-04-29T05:44:23.233Z,3.90
2023-04-29T05:45:23.322Z,3.86
2023-04-29T05:46:23.495Z,3.86
2023-04-29T05:47:23.518Z,3.85
2023-04-29T05:48:23.596Z,3.79
2023-04-29T05:49:23.691Z,3.81
2023-04-29T05:50:23.723Z,3.81
2023-04-29T05:51:23.758Z,3.82
2023-04-29T05:52:23.789Z,3.83
2023-04-29T05:53:23.810Z,3.85
2023-04-29T05:54:23.832Z,3.84
2023-04-29T05:55:23.860Z,3.86
2023-04-29T05:56:23.887Z,3.82
2023-04-29T05:57:23.930Z,3.82
2023-04-29T05:58:23.988Z,3.80
2023-04-29T05:59:24.045Z,3.78
2023-04-29T06:00:24.144Z,3.80
2023-04-29T06:01:24.240Z,3.83
2023-04-29T06:02:24.404Z,3.84
2023-04-29T06:03:24.529Z,3.79
2023-04-29T06:04:24.737Z,3.85
2023-04-29T06:05:24.841Z,3.86
2023-04-29T06:06:24.756Z,3.88
2023-04-29T06:07:24.802Z,3.89
2023-04-29T06:08:24.887Z,3.86
2023-04-29T06:09:27.956Z,3.86
2023-04-29T06:10:25.006Z,3.95
2023-04-29T06:11:25.034Z,3.83
2023-04-29T06:12:25.083Z,3.88
2023-04-29T06:13:25.106Z,3.87
2023-04-29T06:14:25.150Z,3.80
2023-04-29T06:15:25.166Z,3.77
2023-04-29T06:16:25.243Z,3.80
2023-04-29T06:17:25.291Z,3.73
2023-04-29T06:18:25.256Z,3.68
2023-04-29T06:19:25.295Z,3.75
2023-04-29T06:20:25.328Z,3.69
2023-04-29T06:21:25.379Z,3.68
2023-04-29T06:22:25.383Z,3.76
2023-04-29T06:23:25.408Z,3.66
2023-04-29T06:24:25.444Z,3.65
2023-04-29T06:25:25.467Z,3.73
2023-04-29T06:26:25.489Z,3.66
2023-04-29T06:27:25.537Z,3.66
2023-04-29T06:28:25.563Z,3.72
2023-04-29T06:29:25.584Z,3.63
2023-04-29T06:30:25.622Z,3.58
2023-04-29T06:31:25.672Z,3.60
2023-04-29T06:32:25.680Z,3.56
2023-04-29T06:33:25.696Z,3.61
2023-04-29T06:34:25.727Z,3.58
2023-04-29T06:35:25.757Z,3.60
2023-04-29T06:36:25.770Z,3.64
2023-04-29T06:37:25.837Z,3.58
2023-04-29T06:38:25.849Z,3.53
2023-04-29T06:39:25.857Z,3.53
2023-04-29T06:40:25.885Z,3.59
2023-04-29T06:41:25.908Z,3.57
2023-04-29T06:42:25.947Z,3.60
2023-04-29T06:43:25.966Z,3.56
2023-04-29T06:44:26.063Z,3.57
2023-04-29T06:45:26.141Z,3.58
2023-04-29T06:46:26.251Z,3.57
2023-04-29T06:47:26.400Z,3.43
2023-04-29T06:48:26.386Z,3.53
2023-04-29T06:49:26.477Z,3.46
2023-04-29T06:50:26.633Z,3.44
2023-04-29T06:51:26.649Z,3.32
2023-04-29T06:52:26.741Z,3.28
2023-04-29T06:53:26.826Z,3.36
2023-04-29T06:54:26.905Z,3.32
2023-04-29T06:55:26.986Z,3.31
2023-04-29T06:56:27.083Z,3.24
2023-04-29T06:57:27.172Z,3.31
2023-04-29T06:58:27.240Z,3.15
2023-04-29T06:59:27.331Z,3.19
2023-04-29T07:00:27.391Z,3.24
2023-04-29T07:01:27.479Z,3.13
2023-04-29T07:02:27.614Z,3.08
2023-04-29T07:03:27.696Z,2.99
2023-04-29T07:04:27.751Z,2.96
2023-04-29T07:05:27.781Z,2.95
2023-04-29T07:06:27.861Z,2.97
2023-04-29T07:07:27.957Z,2.83
2023-04-29T07:08:28.019Z,2.79
2023-04-29T07:09:28.088Z,2.74
2023-04-29T07:10:28.171Z,2.76
2023-04-29T07:11:28.241Z,2.78
2023-04-29T07:12:28.327Z,2.74
2023-04-29T07:13:28.397Z,2.77
2023-04-29T07:14:28.467Z,2.61
2023-04-29T07:15:28.546Z,2.60
2023-04-29T07:16:28.656Z,2.58
2023-04-29T07:17:28.763Z,2.48
2023-04-29T07:18:28.754Z,2.47
2023-04-29T07:19:28.824Z,2.41
2023-04-29T07:20:28.923Z,2.40
2023-04-29T07:21:28.991Z,2.30
2023-04-29T07:22:29.061Z,2.31
2023-04-29T07:23:29.113Z,2.31
2023-04-29T07:24:29.189Z,2.31
2023-04-29T07:25:29.267Z,2.23
2023-04-29T07:26:29.315Z,2.22
2023-04-29T07:27:29.391Z,2.20
2023-04-29T07:28:29.449Z,2.20
2023-04-29T07:29:29.522Z,2.15
2023-04-29T07:30:29.580Z,2.08
2023-04-29T07:31:29.709Z,2.05
2023-04-29T07:32:29.716Z,2.07
2023-04-29T07:33:29.765Z,1.96
2023-04-29T07:34:29.807Z,1.93
2023-04-29T07:35:29.878Z,1.95
2023-04-29T07:36:29.935Z,1.95
2023-04-29T07:37:29.984Z,1.97
2023-04-29T07:38:30.045Z,1.90
2023-04-29T07:39:30.117Z,1.88
2023-04-29T07:40:30.164Z,1.88
2023-04-29T07:41:30.213Z,1.86
2023-04-29T07:42:30.287Z,1.84
2023-04-29T07:43:30.324Z,1.83
2023-04-29T07:44:30.376Z,1.82
2023-04-29T07:45:30.430Z,1.88
2023-04-29T07:46:30.515Z,1.79
2023-04-29T07:47:30.554Z,1.78
2023-04-29T07:48:30.566Z,1.73
2023-04-29T07:49:30.616Z,1.73
2023-04-29T07:50:30.673Z,1.71
2023-04-29T07:51:30.710Z,1.72
2023-04-29T07:52:30.771Z,1.69
2023-04-29T07:53:30.830Z,1.62
2023-04-29T07:54:30.849Z,1.67
2023-04-29T07:55:30.898Z,1.63
2023-04-29T07:56:30.930Z,1.60
2023-04-29T07:57:30.990Z,1.59
2023-04-29T07:58:31.029Z,1.56
2023-04-29T07:59:31.066Z,1.51
2023-04-29T08:00:31.116Z,1.40
2023-04-29T08:01:31.160Z,1.39
2023-04-29T08:02:31.303Z,1.34
2023-04-29T08:03:31.360Z,1.28
2023-04-29T08:04:31.469Z,1.30
2023-04-29T08:05:31.720Z,1.30
2023-04-29T08:06:31.381Z,1.28
2023-04-29T08:07:31.420Z,1.30
2023-04-29T08:08:31.464Z,1.25
2023-04-29T08:09:31.493Z,1.19
2023-04-29T08:10:31.528Z,1.16
2023-04-29T08:11:31.665Z,1.09
2023-04-29T08:12:31.777Z,1.08
2023-04-29T08:13:31.911Z,1.04
2023-04-29T08:14:31.950Z,1.01
2023-04-29T08:15:31.962Z,0.95
2023-04-29T08:16:32.080Z,0.91
2023-04-29T08:17:32.074Z,0.90
2023-04-29T08:18:32.083Z,0.84
2023-04-29T08:19:32.198Z,0.80
2023-04-29T08:20:32.204Z,0.80
2023-04-29T08:21:32.257Z,0.72
2023-04-29T08:22:32.275Z,0.70
2023-04-29T08:23:32.303Z,0.66
2023-04-29T08:24:32.337Z,0.64
2023-04-29T08:25:32.378Z,0.62
2023-04-29T08:26:32.423Z,0.61
2023-04-29T08:27:32.444Z,0.55
2023-04-29T08:28:32.484Z,0.53
2023-04-29T08:29:32.522Z,0.51
2023-04-29T08:30:32.553Z,0.50
2023-04-29T08:31:32.620Z,0.52
2023-04-29T08:32:32.741Z,0.50
2023-04-29T08:33:32.664Z,0.50
2023-04-29T08:34:32.657Z,0.49
2023-04-29T08:35:32.689Z,0.48
2023-04-29T08:36:32.727Z,0.47
2023-04-29T08:37:32.748Z,0.45
2023-04-29T08:38:32.768Z,0.47
2023-04-29T08:39:32.783Z,0.51
2023-04-29T08:40:32.813Z,0.50
2023-04-29T08:41:32.831Z,0.50
2023-04-29T08:42:32.868Z,0.51
2023-04-29T08:43:32.878Z,0.52
2023-04-29T08:44:32.883Z,0.51
2023-04-29T08:45:32.995Z,0.51
2023-04-29T08:46:32.957Z,0.51
2023-04-29T08:47:33.082Z,0.50
2023-04-29T08:48:33.114Z,0.51
2023-04-29T08:49:33.022Z,0.51
2023-04-29T08:50:33.038Z,0.50
2023-04-29T08:51:33.071Z,0.51
2023-04-29T08:52:33.113Z,0.53
2023-04-29T08:53:33.124Z,0.50
2023-04-29T08:54:33.169Z,0.51
2023-04-29T08:55:33.238Z,0.50
2023-04-29T08:56:33.274Z,0.52
2023-04-29T08:57:33.352Z,0.50
2023-04-29T08:58:33.380Z,0.52
2023-04-29T08:59:33.435Z,0.50
2023-04-29T09:00:33.493Z,0.51
2023-04-29T09:01:33.557Z,0.50
2023-04-29T09:02:33.635Z,0.51
2023-04-29T09:03:33.729Z,0.62
2023-04-29T09:04:33.705Z,0.69
2023-04-29T09:05:33.744Z,0.77
2023-04-29T09:06:33.830Z,0.77
2023-04-29T09:07:33.924Z,0.84
2023-04-29T09:08:34.009Z,0.88
2023-04-29T09:09:34.085Z,0.95
2023-04-29T09:10:34.188Z,1.05
2023-04-29T09:11:34.261Z,1.15
2023-04-29T09:12:34.340Z,1.27
2023-04-29T09:13:34.429Z,1.34
2023-04-29T09:14:34.589Z,1.48
2023-04-29T09:15:34.571Z,1.53
2023-04-29T09:16:34.669Z,1.66
2023-04-29T09:17:34.691Z,1.67
2023-04-29T09:18:34.680Z,1.70
2023-04-29T09:19:34.690Z,1.78
2023-04-29T09:20:34.717Z,1.95
2023-04-29T09:21:34.719Z,2.28
2023-04-29T09:22:34.752Z,2.48
2023-04-29T09:23:34.785Z,2.53
2023-04-29T09:24:34.796Z,2.71
2023-04-29T09:25:34.820Z,2.84
2023-04-29T09:26:34.905Z,2.97
2023-04-29T09:27:34.984Z,3.14
2023-04-29T09:28:35.079Z,3.21
2023-04-29T09:29:35.172Z,3.32
2023-04-29T09:30:35.241Z,3.54
2023-04-29T09:31:35.424Z,3.73
2023-04-29T09:32:36.992Z,3.95
2023-04-29T09:33:35.420Z,4.09
2023-04-29T09:34:35.426Z,4.21
2023-04-29T09:35:35.457Z,4.42
2023-04-29T09:36:35.475Z,4.60
2023-04-29T09:37:35.508Z,4.77
2023-04-29T09:38:35.528Z,5.01
2023-04-29T09:39:35.546Z,5.13
2023-04-29T09:40:46.506Z,5.25
2023-04-29T09:41:36.591Z,5.27
2023-04-29T09:42:35.618Z,5.34
2023-04-29T09:43:35.640Z,5.52
2023-04-29T09:44:35.656Z,5.76
2023-04-29T09:45:35.665Z,6.36
2023-04-29T09:46:35.782Z,6.55
2023-04-29T09:47:35.742Z,6.71
2023-04-29T09:48:35.731Z,7.00
2023-04-29T09:49:35.751Z,7.16
2023-04-29T09:50:35.739Z,7.31
2023-04-29T09:51:35.756Z,7.33
2023-04-29T09:52:35.767Z,7.59
2023-04-29T09:53:35.799Z,7.92
2023-04-29T09:54:35.829Z,8.09
2023-04-29T09:55:35.883Z,8.25
2023-04-29T09:56:35.940Z,8.56
2023-04-29T09:57:36.003Z,8.51
2023-04-29T09:58:36.074Z,9.06
2023-04-29T09:59:36.178Z,8.82
2023-04-29T10:00:36.273Z,9.05
2023-04-29T10:01:36.298Z,9.46
2023-04-29T10:02:36.360Z,9.41
2023-04-29T10:03:36.463Z,9.73
2023-04-29T10:04:38.817Z,9.90
2023-04-29T10:05:36.403Z,10.13
2023-04-29T10:06:36.438Z,10.04
2023-04-29T10:07:36.437Z,10.26
2023-04-29T10:08:36.482Z,10.61
2023-04-29T10:09:36.467Z,10.51
2023-04-29T10:10:36.503Z,10.63
2023-04-29T10:11:36.509Z,10.66
2023-04-29T10:12:36.537Z,10.88
2023-04-29T10:13:36.545Z,10.97
2023-04-29T10:14:36.563Z,11.01
2023-04-29T10:15:36.620Z,11.28
2023-04-29T10:16:36.712Z,11.48
2023-04-29T10:17:36.631Z,11.39
2023-04-29T10:18:36.721Z,11.52
2023-04-29T10:19:36.655Z,11.82
2023-04-29T10:20:36.661Z,11.88
2023-04-29T10:21:36.682Z,12.05
2023-04-29T10:22:36.694Z,12.01
2023-04-29T10:23:36.725Z,12.08
2023-04-29T10:24:36.738Z,12.06
2023-04-29T10:25:36.749Z,12.20
2023-04-29T10:26:36.765Z,12.28
2023-04-29T10:27:36.776Z,12.35
2023-04-29T10:28:36.801Z,12.48
2023-04-29T10:29:36.839Z,12.63
2023-04-29T10:30:36.841Z,12.85
2023-04-29T10:31:36.888Z,12.81
2023-04-29T10:32:49.612Z,12.90
2023-04-29T10:33:37.894Z,12.94
2023-04-29T10:34:36.935Z,13.00
2023-04-29T10:35:36.907Z,13.08
2023-04-29T10:36:36.918Z,13.40
2023-04-29T10:37:36.928Z,13.40
2023-04-29T10:38:36.977Z,13.74
2023-04-29T10:39:36.960Z,13.71
2023-04-29T10:40:37.004Z,13.68
2023-04-29T10:41:36.993Z,13.75
2023-04-29T10:42:37.026Z,13.77
2023-04-29T10:43:37.039Z,13.85
2023-04-29T10:44:37.114Z,13.89
2023-04-29T10:45:37.055Z,14.06
2023-04-29T10:46:37.098Z,14.04
2023-04-29T10:47:37.103Z,14.31
2023-04-29T10:48:37.098Z,14.03
2023-04-29T10:49:37.105Z,14.00
2023-04-29T10:50:37.112Z,14.18
2023-04-29T10:51:37.124Z,14.04
2023-04-29T10:52:37.152Z,14.19
2023-04-29T10:53:37.165Z,14.20
2023-04-29T10:54:37.183Z,14.23
2023-04-29T10:55:37.200Z,14.35
2023-04-29T10:56:37.228Z,14.27
2023-04-29T10:57:37.227Z,14.27
2023-04-29T10:58:37.261Z,14.70
2023-04-29T10:59:37.258Z,14.29
2023-04-29T11:00:37.272Z,14.34
2023-04-29T11:01:37.463Z,14.73
2023-04-29T11:02:37.338Z,14.38
2023-04-29T11:03:37.475Z,14.59
2023-04-29T11:04:37.350Z,14.03
2023-04-29T11:05:37.340Z,14.32
2023-04-29T11:06:37.362Z,14.71
2023-04-29T11:07:37.370Z,14.66
2023-04-29T11:08:37.392Z,14.49
2023-04-29T11:09:37.406Z,14.80
2023-04-29T11:10:37.401Z,15.02
2023-04-29T11:11:37.422Z,14.62
2023-04-29T11:12:37.448Z,14.42
2023-04-29T11:13:37.453Z,14.82
2023-04-29T11:14:37.494Z,14.66
2023-04-29T11:15:37.474Z,14.81
2023-04-29T11:16:37.538Z,14.65
2023-04-29T11:17:37.545Z,14.69
2023-04-29T11:18:37.556Z,14.76
2023-04-29T11:19:37.535Z,14.73
2023-04-29T11:20:37.580Z,14.58
2023-04-29T11:21:37.638Z,14.93
2023-04-29T11:22:37.654Z,14.85
2023-04-29T11:23:37.674Z,14.50
2023-04-29T11:24:37.716Z,14.69
2023-04-29T11:25:39.385Z,14.68
2023-04-29T11:26:37.798Z,14.71
2023-04-29T11:27:37.856Z,14.64
2023-04-29T11:28:37.885Z,14.66
2023-04-29T11:29:37.887Z,14.71
2023-04-29T11:30:37.901Z,14.64
2023-04-29T11:31:38.012Z,14.77
2023-04-29T11:32:38.040Z,15.03
2023-04-29T11:33:38.000Z,14.86
2023-04-29T11:34:37.975Z,14.70
2023-04-29T11:35:37.971Z,15.11
2023-04-29T11:36:38.010Z,14.96
2023-04-29T11:37:38.093Z,14.82
2023-04-29T11:38:38.173Z,14.89
2023-04-29T11:39:38.278Z,14.69
2023-04-29T11:40:38.354Z,15.00
2023-04-29T11:41:38.436Z,14.85
2023-04-29T11:42:38.544Z,14.75
2023-04-29T11:43:38.654Z,14.53
2023-04-29T11:44:38.688Z,14.63
2023-04-29T11:45:38.840Z,14.74
2023-04-29T11:46:38.963Z,14.83
2023-04-29T11:47:38.961Z,14.46
2023-04-29T11:48:39.013Z,14.65
2023-04-29T11:49:39.100Z,14.64
2023-04-29T11:50:39.190Z,14.72
2023-04-29T11:51:39.269Z,14.50
2023-04-29T11:52:39.387Z,14.49
2023-04-29T11:53:39.458Z,14.54
2023-04-29T11:54:39.519Z,14.47
2023-04-29T11:55:39.583Z,14.48
2023-04-29T11:56:39.672Z,14.48
2023-04-29T11:57:39.742Z,14.44
2023-04-29T11:58:39.819Z,14.46
2023-04-29T11:59:39.887Z,14.26
2023-04-29T12:00:39.963Z,14.50
2023-04-29T12:01:40.039Z,14.39
2023-04-29T12:02:40.356Z,14.46
2023-04-29T12:03:40.354Z,14.24
2023-04-29T12:04:40.388Z,14.55
2023-04-29T12:05:40.687Z,14.42
2023-04-29T12:06:40.423Z,14.20
2023-04-29T12:07:40.502Z,14.15
2023-04-29T12:08:40.573Z,14.09
2023-04-29T12:09:40.651Z,14.21
2023-04-29T12:10:40.719Z,14.24
2023-04-29T12:11:40.795Z,14.11
2023-04-29T12:12:40.961Z,14.14
2023-04-29T12:13:40.819Z,14.15
2023-04-29T12:14:40.865Z,14.20
2023-04-29T12:15:40.946Z,14.23
2023-04-29T12:16:40.878Z,14.42
2023-04-29T12:17:40.932Z,14.29
2023-04-29T12:18:40.879Z,14.35
2023-04-29T12:19:40.892Z,14.36
2023-04-29T12:20:40.956Z,14.33
2023-04-29T12:21:40.910Z,14.30
2023-04-29T12:22:40.985Z,14.39
2023-04-29T12:23:41.098Z,14.36
2023-04-29T12:24:41.122Z,13.96
2023-04-29T12:25:41.198Z,14.10
2023-04-29T12:26:41.261Z,14.17
2023-04-29T12:27:41.357Z,14.31
2023-04-29T12:28:41.410Z,14.14
2023-04-29T12:29:41.477Z,14.19
2023-04-29T12:30:41.540Z,14.11
2023-04-29T12:31:41.640Z,14.06
2023-04-29T12:32:41.958Z,14.00
2023-04-29T12:33:41.749Z,13.92
2023-04-29T12:34:41.829Z,14.02
2023-04-29T12:35:41.894Z,13.95
2023-04-29T12:36:41.961Z,13.79
2023-04-29T12:37:42.029Z,14.02
2023-04-29T12:38:42.098Z,14.13
2023-04-29T12:39:42.172Z,13.81
2023-04-29T12:40:42.255Z,13.80
2023-04-29T12:41:42.332Z,13.73
2023-04-29T12:42:42.389Z,13.51
2023-04-29T12:43:42.473Z,13.90
2023-04-29T12:44:42.596Z,13.79
2023-04-29T12:45:42.604Z,13.62
2023-04-29T12:46:42.758Z,13.59
2023-04-29T12:47:42.763Z,13.70
2023-04-29T12:48:42.807Z,13.54
2023-04-29T12:49:42.864Z,13.54
2023-04-29T12:50:42.932Z,13.66
2023-04-29T12:51:42.971Z,13.56
2023-04-29T12:52:43.042Z,13.46
2023-04-29T12:53:43.112Z,13.42
2023-04-29T12:54:43.174Z,13.42
2023-04-29T12:55:43.225Z,13.28
2023-04-29T12:56:43.289Z,13.48
2023-04-29T12:57:43.343Z,13.39
2023-04-29T12:58:43.395Z,13.37
2023-04-29T12:59:43.457Z,13.37
2023-04-29T13:00:43.554Z,13.31
2023-04-29T13:01:43.668Z,12.96
2023-04-29T13:02:43.749Z,12.98
2023-04-29T13:03:43.799Z,13.15
2023-04-29T13:04:44.030Z,13.10
2023-04-29T13:05:43.808Z,13.08
2023-04-29T13:06:43.847Z,13.02